トロムソ の空港の天気 - METARとTAF

トロムソ空港 ( ENTC / TOS ) - ノルウェー トロムス県トロムソ
飛行場実況気象(Metar)
観測時間07/22 01:50 CEST (07/21 23:50 UTC)
風向・風速北北東 1m/s
視程10km以上
天気現象
全天の4割程度の雲 雲底高度 180m
気温9℃
湿度93%
気圧1023hPa
METARENTC 212350Z 02002KT 9999 SCT006 09/08 Q1023 RMK WIND 2600FT 32009KT
過去の天気等 Google飛行場航空写真 Wunderground天気予報

過去48時間のMETAR

飛行場予報(TAF)
発表時間: -
22日2時 CEST ~ 22日10時 CEST に一時的に
全天の8割程度の雲 雲底高度 150m
TAF COR ENTC 2200/2224 02006KT 9999 FEW005 SCT060
TEMPO 2200/2208 BKN005